sensor_id;sensor_type;location;lat;lon;timestamp;temperature;humidity
44723;DHT22;30451;48.638;10.624;2023-07-31T00:00:06;25.10;50.70
44723;DHT22;30451;48.638;10.624;2023-07-31T00:02:34;25.10;50.70
44723;DHT22;30451;48.638;10.624;2023-07-31T00:05:00;25.10;50.70
44723;DHT22;30451;48.638;10.624;2023-07-31T00:07:26;25.10;50.80
44723;DHT22;30451;48.638;10.624;2023-07-31T00:09:52;25.10;50.80
44723;DHT22;30451;48.638;10.624;2023-07-31T00:12:19;25.10;50.80
44723;DHT22;30451;48.638;10.624;2023-07-31T00:14:45;25.10;50.80
44723;DHT22;30451;48.638;10.624;2023-07-31T00:17:11;25.10;50.80
44723;DHT22;30451;48.638;10.624;2023-07-31T00:19:37;25.10;50.80
44723;DHT22;30451;48.638;10.624;2023-07-31T00:22:03;25.10;50.80
44723;DHT22;30451;48.638;10.624;2023-07-31T00:24:28;25.10;50.80
44723;DHT22;30451;48.638;10.624;2023-07-31T00:26:54;25.10;50.90
44723;DHT22;30451;48.638;10.624;2023-07-31T00:29:20;25.10;50.90
44723;DHT22;30451;48.638;10.624;2023-07-31T00:31:45;25.10;50.90
44723;DHT22;30451;48.638;10.624;2023-07-31T00:34:11;25.10;50.90
44723;DHT22;30451;48.638;10.624;2023-07-31T00:36:36;25.00;50.80
44723;DHT22;30451;48.638;10.624;2023-07-31T00:39:02;25.00;50.90
44723;DHT22;30451;48.638;10.624;2023-07-31T00:41:28;25.00;50.90
44723;DHT22;30451;48.638;10.624;2023-07-31T00:43:53;25.00;50.90
44723;DHT22;30451;48.638;10.624;2023-07-31T00:46:19;25.00;50.90
44723;DHT22;30451;48.638;10.624;2023-07-31T00:48:45;25.00;50.90
44723;DHT22;30451;48.638;10.624;2023-07-31T00:51:11;25.00;50.90
44723;DHT22;30451;48.638;10.624;2023-07-31T00:53:37;25.00;50.90
44723;DHT22;30451;48.638;10.624;2023-07-31T00:56:03;25.00;51.00
44723;DHT22;30451;48.638;10.624;2023-07-31T00:58:29;25.00;51.00
44723;DHT22;30451;48.638;10.624;2023-07-31T01:00:55;25.00;51.00
44723;DHT22;30451;48.638;10.624;2023-07-31T01:03:21;25.00;51.00
44723;DHT22;30451;48.638;10.624;2023-07-31T01:08:53;25.00;51.00
44723;DHT22;30451;48.638;10.624;2023-07-31T01:11:25;25.00;51.00
44723;DHT22;30451;48.638;10.624;2023-07-31T01:13:51;25.00;51.00
44723;DHT22;30451;48.638;10.624;2023-07-31T01:16:17;24.90;51.00
44723;DHT22;30451;48.638;10.624;2023-07-31T01:18:42;24.90;51.00
44723;DHT22;30451;48.638;10.624;2023-07-31T01:24:28;24.90;51.00
44723;DHT22;30451;48.638;10.624;2023-07-31T01:27:06;24.90;51.00
44723;DHT22;30451;48.638;10.624;2023-07-31T01:32:09;24.90;51.10
44723;DHT22;30451;48.638;10.624;2023-07-31T01:34:37;24.90;51.10
44723;DHT22;30451;48.638;10.624;2023-07-31T01:37:03;24.90;51.10
44723;DHT22;30451;48.638;10.624;2023-07-31T01:39:28;24.90;51.10
44723;DHT22;30451;48.638;10.624;2023-07-31T01:41:54;24.90;51.10
44723;DHT22;30451;48.638;10.624;2023-07-31T01:44:20;24.90;51.10
44723;DHT22;30451;48.638;10.624;2023-07-31T01:46:45;24.90;51.10
44723;DHT22;30451;48.638;10.624;2023-07-31T01:49:11;24.80;51.10
44723;DHT22;30451;48.638;10.624;2023-07-31T01:51:37;24.80;51.10
44723;DHT22;30451;48.638;10.624;2023-07-31T01:54:02;24.80;51.10
44723;DHT22;30451;48.638;10.624;2023-07-31T01:56:28;24.80;51.10
44723;DHT22;30451;48.638;10.624;2023-07-31T01:58:54;24.80;51.10
44723;DHT22;30451;48.638;10.624;2023-07-31T02:01:19;24.80;51.10
44723;DHT22;30451;48.638;10.624;2023-07-31T02:03:45;24.80;51.10
44723;DHT22;30451;48.638;10.624;2023-07-31T02:06:11;24.80;51.20
44723;DHT22;30451;48.638;10.624;2023-07-31T02:08:36;24.80;51.20
44723;DHT22;30451;48.638;10.624;2023-07-31T02:11:02;24.80;51.20
44723;DHT22;30451;48.638;10.624;2023-07-31T02:13:28;24.80;51.20
44723;DHT22;30451;48.638;10.624;2023-07-31T02:15:53;24.80;51.20
44723;DHT22;30451;48.638;10.624;2023-07-31T02:18:19;24.80;51.20
44723;DHT22;30451;48.638;10.624;2023-07-31T02:20:50;24.80;51.20
44723;DHT22;30451;48.638;10.624;2023-07-31T02:23:16;24.80;51.20
44723;DHT22;30451;48.638;10.624;2023-07-31T02:25:42;24.80;51.20
44723;DHT22;30451;48.638;10.624;2023-07-31T02:28:08;24.80;51.20
44723;DHT22;30451;48.638;10.624;2023-07-31T02:30:34;24.70;51.20
44723;DHT22;30451;48.638;10.624;2023-07-31T02:32:59;24.80;51.30
44723;DHT22;30451;48.638;10.624;2023-07-31T02:35:25;24.80;51.30
44723;DHT22;30451;48.638;10.624;2023-07-31T02:37:50;24.80;51.30
44723;DHT22;30451;48.638;10.624;2023-07-31T02:40:16;24.80;51.30
44723;DHT22;30451;48.638;10.624;2023-07-31T02:42:41;24.70;51.20
44723;DHT22;30451;48.638;10.624;2023-07-31T02:45:07;24.70;51.20
44723;DHT22;30451;48.638;10.624;2023-07-31T02:47:33;24.80;51.30
44723;DHT22;30451;48.638;10.624;2023-07-31T02:49:59;24.70;51.30
44723;DHT22;30451;48.638;10.624;2023-07-31T02:52:25;24.70;51.30
44723;DHT22;30451;48.638;10.624;2023-07-31T02:54:51;24.70;51.30
44723;DHT22;30451;48.638;10.624;2023-07-31T02:57:16;24.70;51.30
44723;DHT22;30451;48.638;10.624;2023-07-31T02:59:42;24.70;51.30
44723;DHT22;30451;48.638;10.624;2023-07-31T03:02:07;24.70;51.40
44723;DHT22;30451;48.638;10.624;2023-07-31T03:04:33;24.70;51.30
44723;DHT22;30451;48.638;10.624;2023-07-31T03:06:59;24.70;51.40
44723;DHT22;30451;48.638;10.624;2023-07-31T03:09:24;24.70;51.40
44723;DHT22;30451;48.638;10.624;2023-07-31T03:11:50;24.70;51.30
44723;DHT22;30451;48.638;10.624;2023-07-31T03:14:15;24.70;51.40
44723;DHT22;30451;48.638;10.624;2023-07-31T03:16:41;24.70;51.40
44723;DHT22;30451;48.638;10.624;2023-07-31T03:19:06;24.70;51.40
44723;DHT22;30451;48.638;10.624;2023-07-31T03:21:32;24.70;51.40
44723;DHT22;30451;48.638;10.624;2023-07-31T03:23:57;24.60;51.30
44723;DHT22;30451;48.638;10.624;2023-07-31T03:26:23;24.60;51.30
44723;DHT22;30451;48.638;10.624;2023-07-31T03:28:49;24.60;51.30
44723;DHT22;30451;48.638;10.624;2023-07-31T03:31:15;24.60;51.40
44723;DHT22;30451;48.638;10.624;2023-07-31T03:33:40;24.60;51.40
44723;DHT22;30451;48.638;10.624;2023-07-31T03:36:06;24.60;51.40
44723;DHT22;30451;48.638;10.624;2023-07-31T03:38:31;24.60;51.40
44723;DHT22;30451;48.638;10.624;2023-07-31T03:40:57;24.60;51.40
44723;DHT22;30451;48.638;10.624;2023-07-31T03:43:24;24.60;51.90
44723;DHT22;30451;48.638;10.624;2023-07-31T03:45:50;24.60;51.40
44723;DHT22;30451;48.638;10.624;2023-07-31T03:48:16;24.60;51.40
44723;DHT22;30451;48.638;10.624;2023-07-31T03:50:42;24.60;51.50
44723;DHT22;30451;48.638;10.624;2023-07-31T03:53:07;24.60;51.50
44723;DHT22;30451;48.638;10.624;2023-07-31T03:55:33;24.60;51.50
44723;DHT22;30451;48.638;10.624;2023-07-31T03:57:59;24.60;51.50
44723;DHT22;30451;48.638;10.624;2023-07-31T04:00:26;24.60;52.00
44723;DHT22;30451;48.638;10.624;2023-07-31T04:02:52;24.60;51.50
44723;DHT22;30451;48.638;10.624;2023-07-31T04:05:18;24.50;51.40
44723;DHT22;30451;48.638;10.624;2023-07-31T04:07:44;24.50;51.40
44723;DHT22;30451;48.638;10.624;2023-07-31T04:10:09;24.50;51.40
44723;DHT22;30451;48.638;10.624;2023-07-31T04:12:35;24.50;51.50
44723;DHT22;30451;48.638;10.624;2023-07-31T04:15:00;24.50;51.50
44723;DHT22;30451;48.638;10.624;2023-07-31T04:17:26;24.50;51.50
44723;DHT22;30451;48.638;10.624;2023-07-31T04:19:52;24.50;51.50
44723;DHT22;30451;48.638;10.624;2023-07-31T04:22:17;24.50;51.50
44723;DHT22;30451;48.638;10.624;2023-07-31T04:24:43;24.50;51.50
44723;DHT22;30451;48.638;10.624;2023-07-31T04:27:08;24.50;51.50
44723;DHT22;30451;48.638;10.624;2023-07-31T04:29:34;24.50;51.50
44723;DHT22;30451;48.638;10.624;2023-07-31T04:32:00;24.50;51.50
44723;DHT22;30451;48.638;10.624;2023-07-31T04:34:25;24.50;51.50
44723;DHT22;30451;48.638;10.624;2023-07-31T04:36:51;24.50;51.60
44723;DHT22;30451;48.638;10.624;2023-07-31T04:39:17;24.50;51.50
44723;DHT22;30451;48.638;10.624;2023-07-31T04:41:42;24.50;51.60
44723;DHT22;30451;48.638;10.624;2023-07-31T04:44:08;24.50;51.60
44723;DHT22;30451;48.638;10.624;2023-07-31T04:46:33;24.50;51.60
44723;DHT22;30451;48.638;10.624;2023-07-31T04:49:00;24.50;51.60
44723;DHT22;30451;48.638;10.624;2023-07-31T04:51:25;24.50;51.60
44723;DHT22;30451;48.638;10.624;2023-07-31T04:53:51;24.40;51.60
44723;DHT22;30451;48.638;10.624;2023-07-31T04:56:16;24.40;51.50
44723;DHT22;30451;48.638;10.624;2023-07-31T04:58:42;24.50;51.80
44723;DHT22;30451;48.638;10.624;2023-07-31T05:01:07;24.40;51.60
44723;DHT22;30451;48.638;10.624;2023-07-31T05:03:33;24.40;51.60
44723;DHT22;30451;48.638;10.624;2023-07-31T05:05:59;24.40;51.60
44723;DHT22;30451;48.638;10.624;2023-07-31T05:08:24;24.40;51.60
44723;DHT22;30451;48.638;10.624;2023-07-31T05:10:50;24.40;51.60
44723;DHT22;30451;48.638;10.624;2023-07-31T05:13:15;24.40;51.60
44723;DHT22;30451;48.638;10.624;2023-07-31T05:15:41;24.40;51.60
44723;DHT22;30451;48.638;10.624;2023-07-31T05:18:07;24.40;51.60
44723;DHT22;30451;48.638;10.624;2023-07-31T05:20:32;24.40;51.60
44723;DHT22;30451;48.638;10.624;2023-07-31T05:22:58;24.40;51.60
44723;DHT22;30451;48.638;10.624;2023-07-31T05:25:24;24.30;51.60
44723;DHT22;30451;48.638;10.624;2023-07-31T05:27:49;24.40;51.60
44723;DHT22;30451;48.638;10.624;2023-07-31T05:30:15;24.40;51.60
44723;DHT22;30451;48.638;10.624;2023-07-31T05:32:40;24.40;51.60
44723;DHT22;30451;48.638;10.624;2023-07-31T05:35:06;24.40;51.60
44723;DHT22;30451;48.638;10.624;2023-07-31T05:37:32;24.30;51.50
44723;DHT22;30451;48.638;10.624;2023-07-31T05:39:58;24.40;51.60
44723;DHT22;30451;48.638;10.624;2023-07-31T05:42:23;24.30;51.50
44723;DHT22;30451;48.638;10.624;2023-07-31T05:44:49;24.40;51.60
44723;DHT22;30451;48.638;10.624;2023-07-31T05:47:15;24.30;51.50
44723;DHT22;30451;48.638;10.624;2023-07-31T05:49:40;24.30;51.60
44723;DHT22;30451;48.638;10.624;2023-07-31T05:52:06;24.30;51.50
44723;DHT22;30451;48.638;10.624;2023-07-31T05:54:32;24.30;51.50
44723;DHT22;30451;48.638;10.624;2023-07-31T05:56:58;24.30;51.50
44723;DHT22;30451;48.638;10.624;2023-07-31T05:59:24;24.30;51.60
44723;DHT22;30451;48.638;10.624;2023-07-31T06:01:49;24.30;51.60
44723;DHT22;30451;48.638;10.624;2023-07-31T06:04:15;24.40;51.70
44723;DHT22;30451;48.638;10.624;2023-07-31T06:06:41;24.30;51.60
44723;DHT22;30451;48.638;10.624;2023-07-31T06:09:06;24.40;51.70
44723;DHT22;30451;48.638;10.624;2023-07-31T06:11:32;24.30;51.60
44723;DHT22;30451;48.638;10.624;2023-07-31T06:13:58;24.40;51.60
44723;DHT22;30451;48.638;10.624;2023-07-31T06:16:25;24.40;51.60
44723;DHT22;30451;48.638;10.624;2023-07-31T06:18:52;24.40;51.50
44723;DHT22;30451;48.638;10.624;2023-07-31T06:21:18;24.40;51.40
44723;DHT22;30451;48.638;10.624;2023-07-31T06:23:43;24.40;51.40
44723;DHT22;30451;48.638;10.624;2023-07-31T06:26:09;24.50;51.50
44723;DHT22;30451;48.638;10.624;2023-07-31T06:28:35;24.50;51.40
44723;DHT22;30451;48.638;10.624;2023-07-31T06:31:00;24.50;51.40
44723;DHT22;30451;48.638;10.624;2023-07-31T06:33:27;24.50;51.40
44723;DHT22;30451;48.638;10.624;2023-07-31T06:35:53;24.50;51.30
44723;DHT22;30451;48.638;10.624;2023-07-31T06:38:26;24.50;51.30
44723;DHT22;30451;48.638;10.624;2023-07-31T06:40:51;24.60;51.40
44723;DHT22;30451;48.638;10.624;2023-07-31T06:43:17;24.60;51.30
44723;DHT22;30451;48.638;10.624;2023-07-31T06:45:43;24.60;51.30
44723;DHT22;30451;48.638;10.624;2023-07-31T06:48:09;24.60;51.20
44723;DHT22;30451;48.638;10.624;2023-07-31T06:50:34;24.60;51.10
44723;DHT22;30451;48.638;10.624;2023-07-31T06:53:00;24.70;51.10
44723;DHT22;30451;48.638;10.624;2023-07-31T06:55:26;24.70;51.10
44723;DHT22;30451;48.638;10.624;2023-07-31T06:57:53;24.70;51.00
44723;DHT22;30451;48.638;10.624;2023-07-31T07:00:20;24.70;51.00
44723;DHT22;30451;48.638;10.624;2023-07-31T07:02:46;24.70;51.10
44723;DHT22;30451;48.638;10.624;2023-07-31T07:05:16;24.70;51.00
44723;DHT22;30451;48.638;10.624;2023-07-31T07:07:42;24.80;51.00
44723;DHT22;30451;48.638;10.624;2023-07-31T07:10:09;24.80;51.00
44723;DHT22;30451;48.638;10.624;2023-07-31T07:12:35;24.80;51.00
44723;DHT22;30451;48.638;10.624;2023-07-31T07:15:01;24.80;51.00
44723;DHT22;30451;48.638;10.624;2023-07-31T07:17:29;24.80;51.00
44723;DHT22;30451;48.638;10.624;2023-07-31T07:19:57;24.80;50.90
44723;DHT22;30451;48.638;10.624;2023-07-31T07:22:24;24.80;50.90
44723;DHT22;30451;48.638;10.624;2023-07-31T07:24:49;24.90;50.90
44723;DHT22;30451;48.638;10.624;2023-07-31T07:27:15;24.80;50.90
44723;DHT22;30451;48.638;10.624;2023-07-31T07:29:40;24.90;50.90
44723;DHT22;30451;48.638;10.624;2023-07-31T07:32:06;24.90;50.90
44723;DHT22;30451;48.638;10.624;2023-07-31T07:34:32;24.90;50.80
44723;DHT22;30451;48.638;10.624;2023-07-31T07:36:57;25.00;50.80
44723;DHT22;30451;48.638;10.624;2023-07-31T07:39:23;24.90;50.70
44723;DHT22;30451;48.638;10.624;2023-07-31T07:41:49;24.90;50.70
44723;DHT22;30451;48.638;10.624;2023-07-31T07:44:15;25.00;50.80
44723;DHT22;30451;48.638;10.624;2023-07-31T07:46:40;25.00;50.70
44723;DHT22;30451;48.638;10.624;2023-07-31T07:49:06;25.00;50.70
44723;DHT22;30451;48.638;10.624;2023-07-31T07:51:32;25.00;50.70
44723;DHT22;30451;48.638;10.624;2023-07-31T07:53:58;25.00;50.70
44723;DHT22;30451;48.638;10.624;2023-07-31T07:56:26;25.00;51.20
44723;DHT22;30451;48.638;10.624;2023-07-31T07:58:52;25.00;50.60
44723;DHT22;30451;48.638;10.624;2023-07-31T08:01:18;25.10;50.60
44723;DHT22;30451;48.638;10.624;2023-07-31T08:03:43;25.10;50.60
44723;DHT22;30451;48.638;10.624;2023-07-31T08:06:09;25.10;50.70
44723;DHT22;30451;48.638;10.624;2023-07-31T08:08:35;25.10;50.60
44723;DHT22;30451;48.638;10.624;2023-07-31T08:11:01;25.10;50.60
44723;DHT22;30451;48.638;10.624;2023-07-31T08:13:27;25.10;50.50
44723;DHT22;30451;48.638;10.624;2023-07-31T08:15:53;25.10;50.50
44723;DHT22;30451;48.638;10.624;2023-07-31T08:18:18;25.10;50.40
44723;DHT22;30451;48.638;10.624;2023-07-31T08:20:44;25.10;50.40
44723;DHT22;30451;48.638;10.624;2023-07-31T08:23:10;25.10;51.00
44723;DHT22;30451;48.638;10.624;2023-07-31T08:25:36;25.10;50.50
44723;DHT22;30451;48.638;10.624;2023-07-31T08:28:03;25.10;50.40
44723;DHT22;30451;48.638;10.624;2023-07-31T08:30:29;25.10;50.50
44723;DHT22;30451;48.638;10.624;2023-07-31T08:32:54;25.20;50.50
44723;DHT22;30451;48.638;10.624;2023-07-31T08:35:20;25.20;50.40
44723;DHT22;30451;48.638;10.624;2023-07-31T08:37:45;25.20;50.40
44723;DHT22;30451;48.638;10.624;2023-07-31T08:40:11;25.20;50.40
44723;DHT22;30451;48.638;10.624;2023-07-31T08:42:47;25.30;50.50
44723;DHT22;30451;48.638;10.624;2023-07-31T08:45:18;25.30;50.40
44723;DHT22;30451;48.638;10.624;2023-07-31T08:47:49;25.30;50.40
44723;DHT22;30451;48.638;10.624;2023-07-31T08:50:17;25.30;50.40
44723;DHT22;30451;48.638;10.624;2023-07-31T08:52:45;25.30;50.40
44723;DHT22;30451;48.638;10.624;2023-07-31T08:55:11;25.30;50.30
44723;DHT22;30451;48.638;10.624;2023-07-31T08:57:38;25.30;50.30
44723;DHT22;30451;48.638;10.624;2023-07-31T09:00:08;25.40;50.30
44723;DHT22;30451;48.638;10.624;2023-07-31T09:03:07;25.40;50.30
44723;DHT22;30451;48.638;10.624;2023-07-31T09:05:35;25.30;50.30
44723;DHT22;30451;48.638;10.624;2023-07-31T09:08:02;25.40;50.80
44723;DHT22;30451;48.638;10.624;2023-07-31T09:10:29;25.40;50.30
44723;DHT22;30451;48.638;10.624;2023-07-31T09:12:55;25.40;50.30
44723;DHT22;30451;48.638;10.624;2023-07-31T09:15:22;25.40;50.30
44723;DHT22;30451;48.638;10.624;2023-07-31T09:17:59;25.40;50.70
44723;DHT22;30451;48.638;10.624;2023-07-31T09:20:25;25.40;50.20
44723;DHT22;30451;48.638;10.624;2023-07-31T09:22:51;25.40;50.20
44723;DHT22;30451;48.638;10.624;2023-07-31T09:25:19;25.50;50.30
44723;DHT22;30451;48.638;10.624;2023-07-31T09:30:14;25.40;50.20
44723;DHT22;30451;48.638;10.624;2023-07-31T09:32:40;25.40;50.10
44723;DHT22;30451;48.638;10.624;2023-07-31T09:35:42;25.40;50.10
44723;DHT22;30451;48.638;10.624;2023-07-31T09:38:12;25.50;50.20
44723;DHT22;30451;48.638;10.624;2023-07-31T09:40:40;25.50;50.20
44723;DHT22;30451;48.638;10.624;2023-07-31T09:43:08;25.50;50.20
44723;DHT22;30451;48.638;10.624;2023-07-31T09:45:39;25.50;50.20
44723;DHT22;30451;48.638;10.624;2023-07-31T09:48:13;25.50;50.30
44723;DHT22;30451;48.638;10.624;2023-07-31T09:50:44;25.50;50.20
44723;DHT22;30451;48.638;10.624;2023-07-31T09:53:10;25.60;50.10
44723;DHT22;30451;48.638;10.624;2023-07-31T09:55:37;25.50;50.50
44723;DHT22;30451;48.638;10.624;2023-07-31T09:58:08;25.50;50.10
44723;DHT22;30451;48.638;10.624;2023-07-31T10:00:34;25.60;50.20
44723;DHT22;30451;48.638;10.624;2023-07-31T10:03:07;25.60;50.30
44723;DHT22;30451;48.638;10.624;2023-07-31T10:05:38;25.60;50.20
44723;DHT22;30451;48.638;10.624;2023-07-31T10:08:07;25.60;50.20
44723;DHT22;30451;48.638;10.624;2023-07-31T10:10:35;25.60;50.30
44723;DHT22;30451;48.638;10.624;2023-07-31T10:13:01;25.60;50.20
44723;DHT22;30451;48.638;10.624;2023-07-31T10:15:28;25.60;50.20
44723;DHT22;30451;48.638;10.624;2023-07-31T10:17:55;25.60;50.20
44723;DHT22;30451;48.638;10.624;2023-07-31T10:20:21;25.70;50.20
44723;DHT22;30451;48.638;10.624;2023-07-31T10:22:48;25.70;50.10
44723;DHT22;30451;48.638;10.624;2023-07-31T10:25:15;25.70;50.10
44723;DHT22;30451;48.638;10.624;2023-07-31T10:27:41;25.70;50.00
44723;DHT22;30451;48.638;10.624;2023-07-31T10:30:14;25.70;50.00
44723;DHT22;30451;48.638;10.624;2023-07-31T10:32:41;25.70;50.10
44723;DHT22;30451;48.638;10.624;2023-07-31T10:35:09;25.70;50.00
44723;DHT22;30451;48.638;10.624;2023-07-31T10:37:40;25.70;50.00
44723;DHT22;30451;48.638;10.624;2023-07-31T10:40:23;25.70;50.10
44723;DHT22;30451;48.638;10.624;2023-07-31T10:42:54;25.70;50.10
44723;DHT22;30451;48.638;10.624;2023-07-31T10:48:06;25.80;50.20
44723;DHT22;30451;48.638;10.624;2023-07-31T10:50:36;25.80;50.30
44723;DHT22;30451;48.638;10.624;2023-07-31T10:53:03;25.80;50.00
44723;DHT22;30451;48.638;10.624;2023-07-31T10:55:41;25.80;50.00
44723;DHT22;30451;48.638;10.624;2023-07-31T10:58:13;25.80;50.00
44723;DHT22;30451;48.638;10.624;2023-07-31T11:00:41;25.80;50.00
44723;DHT22;30451;48.638;10.624;2023-07-31T11:03:10;25.80;50.00
44723;DHT22;30451;48.638;10.624;2023-07-31T11:08:28;25.80;50.00
44723;DHT22;30451;48.638;10.624;2023-07-31T11:13:44;25.80;49.90
44723;DHT22;30451;48.638;10.624;2023-07-31T11:16:11;25.80;50.00
44723;DHT22;30451;48.638;10.624;2023-07-31T11:18:42;25.80;50.00
44723;DHT22;30451;48.638;10.624;2023-07-31T11:21:12;25.80;50.10
44723;DHT22;30451;48.638;10.624;2023-07-31T11:23:38;25.80;50.00
44723;DHT22;30451;48.638;10.624;2023-07-31T11:26:05;25.90;49.80
44723;DHT22;30451;48.638;10.624;2023-07-31T11:28:32;25.90;49.50
44723;DHT22;30451;48.638;10.624;2023-07-31T11:30:59;25.90;49.10
44723;DHT22;30451;48.638;10.624;2023-07-31T11:33:26;25.90;48.30
44723;DHT22;30451;48.638;10.624;2023-07-31T11:35:51;25.90;47.80
44723;DHT22;30451;48.638;10.624;2023-07-31T11:38:26;25.90;47.60
44723;DHT22;30451;48.638;10.624;2023-07-31T11:41:10;25.90;47.10
44723;DHT22;30451;48.638;10.624;2023-07-31T11:43:35;25.90;46.50
44723;DHT22;30451;48.638;10.624;2023-07-31T11:46:04;25.90;46.50
44723;DHT22;30451;48.638;10.624;2023-07-31T11:48:35;25.90;46.50
44723;DHT22;30451;48.638;10.624;2023-07-31T11:51:06;25.90;45.80
44723;DHT22;30451;48.638;10.624;2023-07-31T11:56:10;25.90;45.30
44723;DHT22;30451;48.638;10.624;2023-07-31T11:58:37;25.90;45.70
44723;DHT22;30451;48.638;10.624;2023-07-31T12:01:04;25.90;45.10
44723;DHT22;30451;48.638;10.624;2023-07-31T12:03:31;25.90;45.50
44723;DHT22;30451;48.638;10.624;2023-07-31T12:05:59;25.90;44.90
44723;DHT22;30451;48.638;10.624;2023-07-31T12:08:25;25.90;44.60
44723;DHT22;30451;48.638;10.624;2023-07-31T12:10:52;25.90;44.40
44723;DHT22;30451;48.638;10.624;2023-07-31T12:13:26;25.90;44.50
44723;DHT22;30451;48.638;10.624;2023-07-31T12:15:56;25.90;44.50
44723;DHT22;30451;48.638;10.624;2023-07-31T12:18:24;26.00;44.60
44723;DHT22;30451;48.638;10.624;2023-07-31T12:20:55;25.90;45.20
44723;DHT22;30451;48.638;10.624;2023-07-31T12:23:22;25.90;44.60
44723;DHT22;30451;48.638;10.624;2023-07-31T12:26:07;25.90;44.60
44723;DHT22;30451;48.638;10.624;2023-07-31T12:28:47;25.90;44.70
44723;DHT22;30451;48.638;10.624;2023-07-31T12:31:15;25.90;44.60
44723;DHT22;30451;48.638;10.624;2023-07-31T12:33:42;25.90;45.00
44723;DHT22;30451;48.638;10.624;2023-07-31T12:36:11;25.90;45.50
44723;DHT22;30451;48.638;10.624;2023-07-31T12:38:37;25.90;45.40
44723;DHT22;30451;48.638;10.624;2023-07-31T12:41:03;25.90;45.50
44723;DHT22;30451;48.638;10.624;2023-07-31T12:43:29;26.00;45.50
44723;DHT22;30451;48.638;10.624;2023-07-31T12:45:55;26.00;45.60
44723;DHT22;30451;48.638;10.624;2023-07-31T12:48:22;26.00;45.80
44723;DHT22;30451;48.638;10.624;2023-07-31T12:50:47;26.00;45.90
44723;DHT22;30451;48.638;10.624;2023-07-31T12:53:14;26.00;46.00
44723;DHT22;30451;48.638;10.624;2023-07-31T12:55:40;26.00;46.10
44723;DHT22;30451;48.638;10.624;2023-07-31T12:58:05;26.00;46.20
44723;DHT22;30451;48.638;10.624;2023-07-31T13:00:31;26.00;46.30
44723;DHT22;30451;48.638;10.624;2023-07-31T13:02:56;26.00;46.40
44723;DHT22;30451;48.638;10.624;2023-07-31T13:05:22;26.00;46.60
44723;DHT22;30451;48.638;10.624;2023-07-31T13:07:48;26.00;46.60
44723;DHT22;30451;48.638;10.624;2023-07-31T13:10:14;26.00;46.70
44723;DHT22;30451;48.638;10.624;2023-07-31T13:12:40;26.00;46.80
44723;DHT22;30451;48.638;10.624;2023-07-31T13:15:06;26.00;46.80
44723;DHT22;30451;48.638;10.624;2023-07-31T13:17:32;26.00;46.80
44723;DHT22;30451;48.638;10.624;2023-07-31T13:19:59;26.00;46.80
44723;DHT22;30451;48.638;10.624;2023-07-31T13:22:25;26.00;47.40
44723;DHT22;30451;48.638;10.624;2023-07-31T13:24:50;26.00;47.50
44723;DHT22;30451;48.638;10.624;2023-07-31T13:27:16;26.00;47.00
44723;DHT22;30451;48.638;10.624;2023-07-31T13:29:53;26.00;47.00
44723;DHT22;30451;48.638;10.624;2023-07-31T13:32:19;26.00;47.00
44723;DHT22;30451;48.638;10.624;2023-07-31T13:34:46;26.00;47.00
44723;DHT22;30451;48.638;10.624;2023-07-31T13:37:12;26.00;47.00
44723;DHT22;30451;48.638;10.624;2023-07-31T13:39:38;26.00;47.10
44723;DHT22;30451;48.638;10.624;2023-07-31T13:42:05;26.00;47.10
44723;DHT22;30451;48.638;10.624;2023-07-31T13:44:37;26.00;47.10
44723;DHT22;30451;48.638;10.624;2023-07-31T13:47:03;26.00;47.20
44723;DHT22;30451;48.638;10.624;2023-07-31T13:49:29;26.00;47.20
44723;DHT22;30451;48.638;10.624;2023-07-31T13:51:55;26.00;47.20
44723;DHT22;30451;48.638;10.624;2023-07-31T13:54:21;26.10;47.30
44723;DHT22;30451;48.638;10.624;2023-07-31T13:56:47;26.00;47.30
44723;DHT22;30451;48.638;10.624;2023-07-31T13:59:12;26.00;47.30
44723;DHT22;30451;48.638;10.624;2023-07-31T14:01:40;26.00;47.30
44723;DHT22;30451;48.638;10.624;2023-07-31T14:04:06;26.00;47.40
44723;DHT22;30451;48.638;10.624;2023-07-31T14:06:31;26.00;47.40
44723;DHT22;30451;48.638;10.624;2023-07-31T14:08:57;26.00;47.40
44723;DHT22;30451;48.638;10.624;2023-07-31T14:11:23;26.00;47.40
44723;DHT22;30451;48.638;10.624;2023-07-31T14:13:50;26.00;47.40
44723;DHT22;30451;48.638;10.624;2023-07-31T14:16:16;26.00;47.40
44723;DHT22;30451;48.638;10.624;2023-07-31T14:18:42;26.00;47.90
44723;DHT22;30451;48.638;10.624;2023-07-31T14:21:08;26.00;47.30
44723;DHT22;30451;48.638;10.624;2023-07-31T14:23:34;26.00;47.40
44723;DHT22;30451;48.638;10.624;2023-07-31T14:25:59;26.10;47.50
44723;DHT22;30451;48.638;10.624;2023-07-31T14:28:25;26.10;47.50
44723;DHT22;30451;48.638;10.624;2023-07-31T14:30:51;26.00;47.50
44723;DHT22;30451;48.638;10.624;2023-07-31T14:33:16;26.10;47.50
44723;DHT22;30451;48.638;10.624;2023-07-31T14:35:42;26.10;48.10
44723;DHT22;30451;48.638;10.624;2023-07-31T14:38:08;26.10;47.60
44723;DHT22;30451;48.638;10.624;2023-07-31T14:40:33;26.00;47.50
44723;DHT22;30451;48.638;10.624;2023-07-31T14:42:59;26.10;47.60
44723;DHT22;30451;48.638;10.624;2023-07-31T14:45:25;26.10;47.60
44723;DHT22;30451;48.638;10.624;2023-07-31T14:47:50;26.10;47.50
44723;DHT22;30451;48.638;10.624;2023-07-31T14:50:16;26.00;47.50
44723;DHT22;30451;48.638;10.624;2023-07-31T14:52:42;26.10;47.60
44723;DHT22;30451;48.638;10.624;2023-07-31T14:55:07;26.10;47.60
44723;DHT22;30451;48.638;10.624;2023-07-31T14:57:34;26.10;47.60
44723;DHT22;30451;48.638;10.624;2023-07-31T15:00:00;26.10;47.70
44723;DHT22;30451;48.638;10.624;2023-07-31T15:02:26;26.10;47.70
44723;DHT22;30451;48.638;10.624;2023-07-31T15:04:53;26.10;47.60
44723;DHT22;30451;48.638;10.624;2023-07-31T15:07:18;26.10;47.70
44723;DHT22;30451;48.638;10.624;2023-07-31T15:09:44;26.10;47.70
44723;DHT22;30451;48.638;10.624;2023-07-31T15:12:09;26.10;48.20
44723;DHT22;30451;48.638;10.624;2023-07-31T15:14:35;26.10;47.70
44723;DHT22;30451;48.638;10.624;2023-07-31T15:17:01;26.10;48.30
44723;DHT22;30451;48.638;10.624;2023-07-31T15:19:26;26.10;47.70
44723;DHT22;30451;48.638;10.624;2023-07-31T15:21:52;26.10;47.80
44723;DHT22;30451;48.638;10.624;2023-07-31T15:24:18;26.10;47.80
44723;DHT22;30451;48.638;10.624;2023-07-31T15:26:43;26.10;47.80
44723;DHT22;30451;48.638;10.624;2023-07-31T15:29:09;26.00;47.70
44723;DHT22;30451;48.638;10.624;2023-07-31T15:31:38;26.10;47.90
44723;DHT22;30451;48.638;10.624;2023-07-31T15:34:04;26.10;47.80